Time;durP1;ratioP1;P1;durP2;ratioP2;P2;SDS_P1;SDS_P2;PMS_P1;PMS_P2;Temp;Humidity;BMP_temperature;BMP_pressure;BME280_temperature;BME280_humidity;BME280_pressure;Samples;Min_cycle;Max_cycle;Signal;HPM_P1;HPM_P2
2021/06/16 00:01:08;;;;;;;7.13;3.35;;;15.20;71.30;;;;;;5043376;28;20049;-78
2021/06/16 00:03:34;;;;;;;7.50;3.08;;;15.10;72.20;;;;;;5043138;28;20064;-78
2021/06/16 00:05:59;;;;;;;2.85;2.58;;;15.00;72.60;;;;;;5041246;28;20514;-78
2021/06/16 00:08:25;;;;;;;3.97;2.35;;;15.10;72.20;;;;;;5037343;28;20036;-78
2021/06/16 00:10:51;;;;;;;3.40;2.60;;;15.20;72.10;;;;;;5041785;28;20044;-78
2021/06/16 00:13:17;;;;;;;5.72;2.83;;;15.30;72.20;;;;;;5037257;28;20577;-79
2021/06/16 00:15:44;;;;;;;8.88;4.03;;;15.20;72.80;;;;;;5044617;28;20027;-78
2021/06/16 00:18:10;;;;;;;5.03;3.17;;;15.00;73.90;;;;;;5042244;28;20027;-79
2021/06/16 00:20:37;;;;;;;3.30;2.40;;;14.90;74.00;;;;;;5041234;28;20044;-78
2021/06/16 00:23:04;;;;;;;5.25;2.38;;;14.80;74.10;;;;;;5042527;28;20037;-77
2021/06/16 00:25:30;;;;;;;31.15;5.45;;;14.90;73.90;;;;;;5039623;28;20085;-78
2021/06/16 00:27:56;;;;;;;4.32;2.40;;;14.90;73.50;;;;;;5041207;28;20110;-78
2021/06/16 00:30:22;;;;;;;6.28;3.03;;;14.90;73.50;;;;;;5036322;28;20108;-79
2021/06/16 00:32:48;;;;;;;3.08;2.47;;;14.90;73.00;;;;;;5040628;28;20131;-77
2021/06/16 00:35:18;;;;;;;3.08;2.50;;;14.90;73.30;;;;;;5035546;28;20528;-78
2021/06/16 00:37:44;;;;;;;10.02;4.05;;;14.80;73.30;;;;;;5040524;28;20021;-77
2021/06/16 00:40:12;;;;;;;8.13;2.75;;;15.00;72.50;;;;;;5038665;28;20039;-77
2021/06/16 00:42:38;;;;;;;4.35;3.00;;;15.00;72.90;;;;;;5052592;28;21791;-77
2021/06/16 00:45:06;;;;;;;6.93;3.33;;;15.00;72.60;;;;;;5050636;28;20033;-78
2021/06/16 00:47:32;;;;;;;15.60;4.10;;;15.00;72.90;;;;;;5051669;28;20090;-78
2021/06/16 00:49:57;;;;;;;33.58;5.97;;;14.90;73.70;;;;;;5062682;28;21266;-78
2021/06/16 00:52:23;;;;;;;7.82;3.53;;;14.70;74.00;;;;;;5051177;28;20020;-78
2021/06/16 00:54:49;;;;;;;7.97;3.38;;;14.80;73.70;;;;;;5047919;28;20037;-78
2021/06/16 00:57:15;;;;;;;4.45;2.80;;;14.90;73.20;;;;;;5045918;28;20033;-77
2021/06/16 01:00:07;;;;;;;5.00;3.17;;;15.00;74.10;;;;;;5059583;28;20507;-77
2021/06/16 01:02:44;;;;;;;28.95;6.20;;;15.00;73.30;;;;;;5042179;28;20041;-77
2021/06/16 01:05:10;;;;;;;39.67;7.13;;;15.10;73.80;;;;;;5044378;28;20037;-77
2021/06/16 01:07:43;;;;;;;6.30;3.70;;;15.00;74.40;;;;;;5045478;28;20033;-77
2021/06/16 01:10:15;;;;;;;3.45;2.63;;;14.80;74.30;;;;;;5041944;28;20429;-77
2021/06/16 01:12:59;;;;;;;2.92;2.22;;;14.90;73.80;;;;;;5041515;28;20574;-78
2021/06/16 01:15:27;;;;;;;5.30;2.97;;;14.70;74.70;;;;;;5039986;28;20087;-77
2021/06/16 01:17:59;;;;;;;5.78;2.70;;;14.70;74.90;;;;;;5040915;28;20039;-78
2021/06/16 01:20:36;;;;;;;4.35;2.75;;;14.70;74.90;;;;;;5043968;28;20045;-77
2021/06/16 01:23:08;;;;;;;5.20;3.15;;;14.60;76.30;;;;;;5042469;28;20109;-77
2021/06/16 01:25:41;;;;;;;3.35;2.75;;;14.50;77.30;;;;;;5036076;28;20053;-77
2021/06/16 01:28:08;;;;;;;3.33;2.90;;;14.50;76.50;;;;;;5043917;28;20020;-77
2021/06/16 01:30:35;;;;;;;3.27;2.70;;;14.50;77.00;;;;;;5036517;28;20049;-77
2021/06/16 01:33:03;;;;;;;3.88;2.70;;;14.40;78.60;;;;;;5041336;28;20280;-77
2021/06/16 01:35:31;;;;;;;3.95;2.65;;;14.40;77.50;;;;;;5041017;28;20595;-75
2021/06/16 01:37:59;;;;;;;3.90;2.83;;;14.60;76.40;;;;;;5041663;28;20039;-78
2021/06/16 01:40:26;;;;;;;3.58;3.25;;;14.70;75.90;;;;;;5046360;28;20115;-78
2021/06/16 01:42:53;;;;;;;5.60;2.80;;;14.70;76.50;;;;;;5037572;28;20029;-77
2021/06/16 01:45:20;;;;;;;3.78;2.90;;;14.60;76.60;;;;;;5038941;28;20104;-77
2021/06/16 01:47:47;;;;;;;8.80;3.58;;;14.60;76.00;;;;;;5038829;28;20032;-77
2021/06/16 01:50:17;;;;;;;4.60;2.42;;;14.60;75.60;;;;;;5033281;28;20029;-76
2021/06/16 01:52:46;;;;;;;5.15;2.50;;;14.70;75.60;;;;;;5038230;28;20069;-78
2021/06/16 01:55:13;;;;;;;3.17;2.38;;;14.60;75.50;;;;;;5052305;28;20028;-77
2021/06/16 01:57:39;;;;;;;3.03;2.50;;;14.60;74.90;;;;;;5038340;28;20023;-78
2021/06/16 02:00:07;;;;;;;7.82;3.33;;;14.60;74.60;;;;;;5040864;28;20045;-77
2021/06/16 02:02:33;;;;;;;6.25;2.92;;;14.60;74.50;;;;;;5041086;28;20553;-78
2021/06/16 02:04:59;;;;;;;6.03;3.00;;;14.40;75.20;;;;;;5037048;28;20041;-77
2021/06/16 02:07:29;;;;;;;2.72;2.30;;;14.20;75.90;;;;;;5039864;28;20045;-78
2021/06/16 02:09:56;;;;;;;3.60;3.00;;;14.20;75.60;;;;;;5052174;28;20029;-77
2021/06/16 02:12:22;;;;;;;3.60;2.78;;;14.30;76.10;;;;;;5041910;28;20028;-77
2021/06/16 02:14:55;;;;;;;4.43;2.53;;;14.30;75.40;;;;;;5042012;28;20021;-77
2021/06/16 02:17:23;;;;;;;4.70;2.70;;;14.30;75.90;;;;;;5040317;28;20040;-76
2021/06/16 02:19:52;;;;;;;6.45;2.58;;;14.40;75.70;;;;;;5042718;28;20304;-77
2021/06/16 02:22:18;;;;;;;5.53;2.67;;;14.40;75.50;;;;;;5038758;28;20036;-78
2021/06/16 02:24:45;;;;;;;3.00;2.40;;;14.40;75.90;;;;;;5038624;28;20105;-78
2021/06/16 02:27:12;;;;;;;7.45;3.55;;;14.40;75.70;;;;;;5043309;28;20174;-77
2021/06/16 02:29:37;;;;;;;3.75;2.95;;;14.40;76.30;;;;;;5048109;28;20025;-77
2021/06/16 02:32:03;;;;;;;6.05;3.10;;;14.40;76.30;;;;;;5044197;28;20404;-77
2021/06/16 02:34:29;;;;;;;2.80;2.50;;;14.40;76.90;;;;;;5047105;28;20060;-76
2021/06/16 02:36:59;;;;;;;4.07;3.00;;;14.30;76.10;;;;;;5042698;28;20052;-77
2021/06/16 02:39:49;;;;;;;4.05;3.10;;;14.40;76.10;;;;;;5037913;28;20067;-78
2021/06/16 02:42:15;;;;;;;3.55;2.72;;;14.40;75.70;;;;;;5041178;28;20412;-77
2021/06/16 02:44:44;;;;;;;3.95;3.20;;;14.40;76.60;;;;;;5040479;28;20024;-77
2021/06/16 02:47:12;;;;;;;5.50;3.10;;;14.30;76.10;;;;;;5038805;28;20022;-77
2021/06/16 02:49:41;;;;;;;2.80;2.50;;;14.30;76.00;;;;;;5038570;28;20395;-78
2021/06/16 02:52:10;;;;;;;3.53;2.97;;;14.40;75.70;;;;;;5038847;28;20124;-77
2021/06/16 02:54:38;;;;;;;6.85;3.47;;;14.30;76.50;;;;;;5039445;28;20079;-78
2021/06/16 02:57:05;;;;;;;8.25;3.22;;;14.30;76.30;;;;;;5041544;28;20025;-77
2021/06/16 02:59:32;;;;;;;25.25;5.78;;;14.30;76.30;;;;;;5044981;28;20417;-77
2021/06/16 03:01:58;;;;;;;43.13;7.45;;;14.20;76.60;;;;;;5053067;28;20043;-78
2021/06/16 03:04:25;;;;;;;17.33;4.72;;;14.20;76.20;;;;;;5046042;28;20025;-78
2021/06/16 03:06:53;;;;;;;27.45;5.65;;;14.10;77.60;;;;;;5043605;28;20120;-78
2021/06/16 03:09:22;;;;;;;25.00;5.47;;;14.00;78.80;;;;;;5047597;28;20021;-78
2021/06/16 03:11:49;;;;;;;7.15;3.00;;;13.80;79.20;;;;;;5042900;28;20399;-77
2021/06/16 03:14:16;;;;;;;4.95;3.25;;;13.70;79.20;;;;;;5040866;28;20024;-76
2021/06/16 03:16:42;;;;;;;12.52;5.07;;;13.80;79.50;;;;;;5036848;28;20033;-78
2021/06/16 03:19:08;;;;;;;8.38;3.65;;;13.80;79.90;;;;;;5038984;28;20028;-78
2021/06/16 03:21:35;;;;;;;6.65;3.78;;;13.80;79.30;;;;;;5044342;28;20033;-77
2021/06/16 03:24:01;;;;;;;4.55;3.10;;;13.90;79.20;;;;;;5034909;28;20029;-78
2021/06/16 03:26:28;;;;;;;3.20;2.63;;;13.90;79.40;;;;;;5035236;28;20391;-79
2021/06/16 03:28:55;;;;;;;3.38;2.60;;;13.80;79.50;;;;;;5034674;28;20774;-78
2021/06/16 03:31:21;;;;;;;2.83;2.50;;;13.80;77.60;;;;;;5038254;28;20526;-77
2021/06/16 03:33:48;;;;;;;4.70;2.90;;;13.80;76.70;;;;;;5037765;28;20029;-77
2021/06/16 03:36:16;;;;;;;3.13;2.80;;;13.90;77.10;;;;;;5038996;28;20029;-77
2021/06/16 03:38:43;;;;;;;7.78;3.63;;;13.90;76.80;;;;;;5038427;28;20115;-76
2021/06/16 03:41:10;;;;;;;5.15;2.70;;;13.90;79.30;;;;;;5040009;28;20020;-77
2021/06/16 03:43:37;;;;;;;3.78;3.35;;;13.80;79.70;;;;;;5036917;28;20029;-77
2021/06/16 03:46:06;;;;;;;22.35;5.22;;;13.70;80.30;;;;;;5033337;28;20725;-77
2021/06/16 03:48:33;;;;;;;6.65;3.22;;;13.70;80.70;;;;;;5036240;28;20037;-77
2021/06/16 03:50:59;;;;;;;6.38;3.53;;;13.80;79.90;;;;;;5036782;28;20029;-77
2021/06/16 03:53:26;;;;;;;7.70;3.05;;;13.90;79.30;;;;;;5036986;28;20046;-78
2021/06/16 03:55:54;;;;;;;9.45;3.85;;;13.90;79.50;;;;;;5036391;28;20036;-77
2021/06/16 03:58:20;;;;;;;4.28;3.35;;;13.90;80.00;;;;;;5032419;28;20082;-78
2021/06/16 04:00:46;;;;;;;4.82;3.10;;;13.90;79.80;;;;;;5034911;28;20037;-78
2021/06/16 04:03:13;;;;;;;15.10;4.78;;;14.00;79.40;;;;;;5037123;28;20025;-79
2021/06/16 04:05:39;;;;;;;9.40;3.58;;;14.10;78.80;;;;;;5036318;28;20112;-78
2021/06/16 04:08:06;;;;;;;12.80;4.00;;;14.10;78.20;;;;;;5035734;28;20055;-77
2021/06/16 04:10:32;;;;;;;4.63;3.10;;;14.20;78.00;;;;;;5039630;28;20092;-78
2021/06/16 04:12:58;;;;;;;23.48;4.80;;;14.10;77.10;;;;;;5035691;28;20030;-77
2021/06/16 04:15:24;;;;;;;10.32;4.28;;;14.10;78.30;;;;;;5041931;28;20017;-76
2021/06/16 04:17:49;;;;;;;16.40;4.30;;;14.10;78.70;;;;;;5037023;28;20407;-77
2021/06/16 04:20:16;;;;;;;7.15;3.30;;;14.10;79.20;;;;;;5036535;28;20033;-77
2021/06/16 04:22:43;;;;;;;6.82;3.78;;;14.20;79.60;;;;;;5037473;28;20037;-77
2021/06/16 04:25:09;;;;;;;5.53;3.33;;;14.20;79.10;;;;;;5036210;28;20036;-78
2021/06/16 04:27:36;;;;;;;9.20;3.50;;;14.20;78.90;;;;;;5034646;28;20024;-77
2021/06/16 04:30:04;;;;;;;7.00;3.40;;;14.30;78.30;;;;;;5036795;28;20040;-78
2021/06/16 04:32:30;;;;;;;17.48;4.65;;;14.30;78.30;;;;;;5039489;28;20079;-78
2021/06/16 04:34:56;;;;;;;4.95;3.05;;;14.40;78.70;;;;;;5040971;28;20151;-78
2021/06/16 04:37:21;;;;;;;3.85;3.05;;;14.50;79.10;;;;;;5039156;28;20108;-78
2021/06/16 04:39:47;;;;;;;4.03;2.80;;;14.50;79.80;;;;;;5043346;28;21068;-77
2021/06/16 04:42:13;;;;;;;12.48;3.85;;;14.50;79.10;;;;;;5040969;28;20044;-78
2021/06/16 04:44:38;;;;;;;6.05;3.53;;;14.60;79.30;;;;;;5044357;28;20036;-77
2021/06/16 04:47:04;;;;;;;7.03;3.53;;;14.70;78.00;;;;;;5041277;28;20056;-78
2021/06/16 04:49:32;;;;;;;15.20;5.75;;;14.80;78.10;;;;;;5040906;28;20029;-78
2021/06/16 04:51:57;;;;;;;17.55;4.35;;;14.80;78.40;;;;;;5042640;28;20032;-78
2021/06/16 04:54:23;;;;;;;23.25;5.20;;;14.80;78.10;;;;;;5044209;28;20027;-78
2021/06/16 04:56:49;;;;;;;8.23;3.40;;;14.90;77.70;;;;;;5039431;28;20083;-78
2021/06/16 04:59:14;;;;;;;15.18;4.55;;;14.90;78.00;;;;;;5036086;28;20060;-78
2021/06/16 05:01:40;;;;;;;9.48;4.00;;;14.90;78.00;;;;;;5042349;28;20040;-77
2021/06/16 05:04:06;;;;;;;12.82;3.80;;;15.00;78.10;;;;;;5038294;28;20408;-78
2021/06/16 05:06:32;;;;;;;6.45;3.95;;;15.10;77.80;;;;;;5046441;28;20029;-77
2021/06/16 05:08:58;;;;;;;4.50;3.88;;;15.20;78.50;;;;;;5038853;28;20098;-77
2021/06/16 05:11:23;;;;;;;4.55;3.90;;;15.10;79.50;;;;;;5043130;28;20481;-76
2021/06/16 05:13:49;;;;;;;5.53;3.80;;;15.20;79.00;;;;;;5040318;28;20032;-78
2021/06/16 05:16:15;;;;;;;5.05;3.60;;;15.30;78.80;;;;;;5039484;28;20209;-78
2021/06/16 05:18:43;;;;;;;24.40;5.80;;;15.40;77.90;;;;;;5048844;28;20017;-78
2021/06/16 05:21:09;;;;;;;10.25;4.97;;;15.50;78.20;;;;;;5063978;28;20701;-78
2021/06/16 05:23:35;;;;;;;10.60;5.13;;;15.60;78.00;;;;;;5043526;28;20121;-77
2021/06/16 05:26:01;;;;;;;19.63;6.07;;;15.70;77.80;;;;;;5040670;28;20040;-78
2021/06/16 05:28:26;;;;;;;22.02;6.18;;;15.80;77.40;;;;;;5046885;28;20054;-80
2021/06/16 05:30:52;;;;;;;60.17;17.23;;;15.90;76.80;;;;;;5043662;28;20048;-78
2021/06/16 05:33:18;;;;;;;55.72;15.55;;;16.00;76.30;;;;;;5044207;28;20449;-77
2021/06/16 05:35:43;;;;;;;51.38;15.20;;;16.00;75.70;;;;;;5041241;28;20033;-77
2021/06/16 05:38:10;;;;;;;30.88;10.25;;;16.20;75.60;;;;;;5042616;28;20029;-79
2021/06/16 05:40:36;;;;;;;17.40;7.85;;;16.20;75.70;;;;;;5043533;28;20025;-78
2021/06/16 05:43:02;;;;;;;7.53;4.32;;;16.40;76.00;;;;;;5040633;28;20021;-79
2021/06/16 05:45:28;;;;;;;8.45;4.65;;;16.40;75.90;;;;;;5043899;28;20080;-79
2021/06/16 05:47:54;;;;;;;5.55;4.18;;;16.50;76.70;;;;;;5045736;28;20118;-80
2021/06/16 05:50:21;;;;;;;7.03;4.38;;;16.60;74.90;;;;;;5044897;28;20033;-79
2021/06/16 05:52:46;;;;;;;6.18;4.03;;;16.70;75.10;;;;;;5046754;28;20025;-78
2021/06/16 05:55:13;;;;;;;5.68;4.40;;;16.80;75.10;;;;;;5041130;28;20527;-77
2021/06/16 05:57:39;;;;;;;6.57;4.38;;;16.90;75.10;;;;;;5050801;28;20024;-78
2021/06/16 06:00:07;;;;;;;5.03;4.53;;;16.90;74.90;;;;;;5039351;28;20478;-78
2021/06/16 06:02:33;;;;;;;7.30;4.35;;;17.00;74.10;;;;;;5039396;28;20080;-78
2021/06/16 06:04:59;;;;;;;9.88;4.88;;;17.00;74.10;;;;;;5042124;28;20126;-78
2021/06/16 06:07:24;;;;;;;7.68;4.63;;;17.10;74.50;;;;;;5040325;28;20051;-80
2021/06/16 06:09:50;;;;;;;7.63;4.53;;;17.20;75.00;;;;;;5041363;28;20392;-80
2021/06/16 06:12:17;;;;;;;7.72;4.60;;;17.30;74.80;;;;;;5041361;28;20475;-78
2021/06/16 06:14:42;;;;;;;8.13;4.95;;;17.40;75.20;;;;;;5038528;28;20511;-78
2021/06/16 06:17:08;;;;;;;8.65;5.00;;;17.60;75.20;;;;;;5039637;28;20022;-79
2021/06/16 06:19:34;;;;;;;6.63;4.80;;;17.70;76.10;;;;;;5041841;28;20071;-79
2021/06/16 06:22:00;;;;;;;8.48;5.35;;;17.70;74.50;;;;;;5041275;28;20112;-78
2021/06/16 06:24:26;;;;;;;5.47;4.82;;;17.90;76.60;;;;;;5043675;28;20556;-79
2021/06/16 06:26:51;;;;;;;6.95;4.65;;;18.10;77.50;;;;;;5041679;28;20038;-79
2021/06/16 06:29:17;;;;;;;8.75;4.95;;;18.20;77.00;;;;;;5047862;28;20024;-76
2021/06/16 06:31:43;;;;;;;7.15;4.60;;;18.40;76.00;;;;;;5043972;28;20584;-79
2021/06/16 06:34:08;;;;;;;7.53;4.93;;;18.50;75.30;;;;;;5043039;28;20029;-78
2021/06/16 06:36:34;;;;;;;7.97;4.55;;;18.70;75.00;;;;;;5046227;28;20024;-77
2021/06/16 06:39:00;;;;;;;5.35;4.30;;;18.80;74.60;;;;;;5042162;28;20032;-78
2021/06/16 06:41:26;;;;;;;6.60;4.50;;;18.90;74.20;;;;;;5041611;28;20029;-78
2021/06/16 06:43:52;;;;;;;5.57;4.57;;;19.00;74.60;;;;;;5039334;28;20044;-79
2021/06/16 06:46:18;;;;;;;5.43;4.38;;;19.10;74.10;;;;;;5045423;28;20021;-78
2021/06/16 06:48:44;;;;;;;6.60;4.07;;;19.20;73.00;;;;;;5040629;28;20033;-78
2021/06/16 06:51:10;;;;;;;8.88;4.45;;;19.30;73.10;;;;;;5038505;28;20029;-79
2021/06/16 06:53:36;;;;;;;5.22;3.90;;;19.40;74.30;;;;;;5037232;28;20065;-79
2021/06/16 06:56:02;;;;;;;6.70;4.50;;;19.50;71.80;;;;;;5043837;28;20029;-78
2021/06/16 06:58:29;;;;;;;5.05;3.47;;;19.60;72.80;;;;;;5037909;28;20025;-79
2021/06/16 07:00:54;;;;;;;8.07;4.35;;;19.80;72.40;;;;;;5054136;28;20086;-79
2021/06/16 07:03:20;;;;;;;4.85;3.70;;;19.90;70.60;;;;;;5041111;28;20029;-79
2021/06/16 07:05:46;;;;;;;5.57;4.28;;;20.00;70.10;;;;;;5051752;28;20609;-79
2021/06/16 07:08:11;;;;;;;9.45;4.28;;;20.10;70.00;;;;;;5037936;28;20021;-78
2021/06/16 07:10:37;;;;;;;6.55;3.85;;;20.20;70.70;;;;;;5044705;28;20419;-78
2021/06/16 07:13:03;;;;;;;6.82;3.60;;;20.30;70.40;;;;;;5039031;28;20026;-78
2021/06/16 07:15:31;;;;;;;6.90;3.78;;;20.50;69.30;;;;;;5039861;28;20032;-79
2021/06/16 07:17:57;;;;;;;4.68;3.50;;;20.50;69.50;;;;;;5046192;28;20439;-78
2021/06/16 07:20:23;;;;;;;7.10;3.72;;;20.70;68.90;;;;;;5044544;28;20040;-79
2021/06/16 07:22:48;;;;;;;4.20;3.80;;;20.80;67.90;;;;;;5041450;28;20043;-77
2021/06/16 07:25:16;;;;;;;3.97;3.40;;;20.90;67.30;;;;;;5040181;28;21424;-78
2021/06/16 07:27:45;;;;;;;5.30;3.22;;;21.10;70.10;;;;;;5043463;28;20416;-78
2021/06/16 07:30:12;;;;;;;5.03;3.40;;;21.30;67.40;;;;;;5039406;28;20409;-80
2021/06/16 07:32:39;;;;;;;4.60;3.10;;;21.40;67.70;;;;;;5040466;28;20074;-78
2021/06/16 07:35:06;;;;;;;4.15;2.92;;;21.60;66.70;;;;;;5047165;28;20267;-79
2021/06/16 07:37:31;;;;;;;4.60;3.17;;;21.70;66.00;;;;;;5042531;28;20032;-77
2021/06/16 07:39:57;;;;;;;3.88;3.05;;;21.70;65.30;;;;;;5045132;28;20028;-77
2021/06/16 07:42:23;;;;;;;4.70;2.90;;;21.80;63.30;;;;;;5040397;28;20025;-79
2021/06/16 07:44:49;;;;;;;5.30;3.10;;;21.90;64.00;;;;;;5036368;28;20341;-79
2021/06/16 07:47:14;;;;;;;3.17;2.70;;;22.00;65.50;;;;;;5047316;28;20123;-79
2021/06/16 07:49:40;;;;;;;4.22;2.80;;;22.10;63.30;;;;;;5043583;28;20021;-77
2021/06/16 07:52:07;;;;;;;3.22;2.80;;;22.20;64.60;;;;;;5037871;28;20298;-77
2021/06/16 07:54:32;;;;;;;4.05;2.92;;;22.30;61.20;;;;;;5040929;28;20507;-78
2021/06/16 07:56:58;;;;;;;6.88;3.20;;;22.40;63.90;;;;;;5035786;28;20079;-78
2021/06/16 07:59:24;;;;;;;5.70;2.75;;;22.60;63.00;;;;;;5039240;28;20029;-78
2021/06/16 08:01:50;;;;;;;5.63;2.88;;;22.70;59.10;;;;;;5036150;28;20046;-79
2021/06/16 08:04:16;;;;;;;4.95;2.90;;;22.70;61.50;;;;;;5039083;28;20037;-77
2021/06/16 08:06:42;;;;;;;4.82;2.85;;;22.90;62.50;;;;;;5039521;28;20104;-78
2021/06/16 08:09:07;;;;;;;6.25;2.88;;;22.90;60.10;;;;;;5041943;28;20104;-79
2021/06/16 08:11:33;;;;;;;3.97;2.80;;;23.00;56.10;;;;;;5039996;28;20033;-78
2021/06/16 08:13:59;;;;;;;3.55;3.03;;;23.00;55.70;;;;;;5039796;28;20102;-80
2021/06/16 08:16:25;;;;;;;8.38;2.88;;;23.00;55.30;;;;;;5058614;28;20017;-79
2021/06/16 08:18:52;;;;;;;4.68;3.05;;;23.20;54.30;;;;;;5037950;28;20031;-79
2021/06/16 08:21:19;;;;;;;5.15;2.90;;;23.30;55.40;;;;;;5036978;28;20025;-80
2021/06/16 08:23:46;;;;;;;6.30;3.50;;;23.40;56.00;;;;;;5037637;28;20115;-79
2021/06/16 08:26:12;;;;;;;5.72;3.30;;;23.50;54.80;;;;;;5048676;28;20391;-80
2021/06/16 08:28:38;;;;;;;4.30;2.88;;;23.70;57.10;;;;;;5051525;28;20024;-80
2021/06/16 08:31:04;;;;;;;3.47;2.97;;;23.80;53.00;;;;;;5039672;28;20069;-78
2021/06/16 08:33:30;;;;;;;3.03;2.72;;;23.90;55.20;;;;;;5040987;28;20025;-79
2021/06/16 08:35:56;;;;;;;4.45;3.00;;;24.00;54.50;;;;;;5037997;28;20032;-79
2021/06/16 08:38:22;;;;;;;3.63;2.47;;;24.00;55.00;;;;;;5044560;28;20032;-78
2021/06/16 08:40:48;;;;;;;3.33;2.60;;;24.10;52.50;;;;;;5048593;28;20025;-78
2021/06/16 08:43:14;;;;;;;5.03;2.67;;;24.10;52.30;;;;;;5043118;28;20675;-78
2021/06/16 08:45:41;;;;;;;3.72;3.00;;;24.30;52.40;;;;;;5048899;28;20028;-78
2021/06/16 08:48:07;;;;;;;3.78;2.92;;;24.30;50.20;;;;;;5042696;28;20033;-79
2021/06/16 08:50:34;;;;;;;3.20;2.88;;;24.30;50.40;;;;;;5047276;28;20057;-79
2021/06/16 08:52:59;;;;;;;6.40;2.92;;;24.40;49.50;;;;;;5050004;28;20059;-78
2021/06/16 08:55:25;;;;;;;3.38;2.83;;;24.60;52.30;;;;;;5041210;28;20457;-77
2021/06/16 08:57:51;;;;;;;3.35;2.80;;;24.70;48.70;;;;;;5040996;28;20037;-78
2021/06/16 09:00:19;;;;;;;5.35;3.10;;;24.90;51.30;;;;;;5035293;28;20033;-78
2021/06/16 09:02:45;;;;;;;3.55;2.58;;;25.10;48.50;;;;;;5046168;28;20029;-79
2021/06/16 09:05:11;;;;;;;5.03;3.05;;;25.20;46.30;;;;;;5037095;28;20033;-78
2021/06/16 09:07:39;;;;;;;6.07;3.05;;;25.10;46.00;;;;;;5039360;28;20377;-77
2021/06/16 09:10:16;;;;;;;3.70;2.80;;;25.10;46.70;;;;;;5039600;28;20052;-79
2021/06/16 09:12:54;;;;;;;3.17;2.78;;;25.10;46.10;;;;;;5041091;28;20029;-78
2021/06/16 09:15:22;;;;;;;4.25;2.70;;;25.10;47.90;;;;;;5042193;28;20028;-78
2021/06/16 09:18:03;;;;;;;420.13;29.58;;;25.10;47.70;;;;;;5045542;28;20028;-78
2021/06/16 09:20:48;;;;;;;7.90;3.03;;;25.20;48.50;;;;;;5038006;28;20742;-78
2021/06/16 09:23:28;;;;;;;5.78;2.97;;;25.30;45.60;;;;;;5043654;28;20426;-78
2021/06/16 09:26:17;;;;;;;2.92;2.60;;;25.40;44.50;;;;;;5046535;28;20491;-79
2021/06/16 09:28:50;;;;;;;3.53;2.90;;;25.60;45.10;;;;;;5044172;28;20585;-77
2021/06/16 09:31:17;;;;;;;5.07;3.00;;;25.60;45.00;;;;;;5043205;28;20174;-79
2021/06/16 09:33:43;;;;;;;2.93;2.27;;;25.60;46.50;;;;;;5042479;28;20566;-78
2021/06/16 09:36:12;;;;;;;3.63;2.50;;;25.60;45.50;;;;;;5046884;28;20116;-78
2021/06/16 09:38:37;;;;;;;3.88;2.80;;;25.90;44.50;;;;;;5038566;28;20029;-78
2021/06/16 09:41:09;;;;;;;3.13;2.28;;;25.80;41.00;;;;;;5042480;28;20029;-78
2021/06/16 09:43:36;;;;;;;5.10;2.80;;;25.90;41.90;;;;;;5047646;28;20029;-78
2021/06/16 09:46:05;;;;;;;2.88;2.60;;;26.10;42.00;;;;;;5044244;28;20058;-79
2021/06/16 09:48:41;;;;;;;4.80;2.30;;;26.10;38.60;;;;;;5043137;28;20041;-78
2021/06/16 09:51:27;;;;;;;3.55;2.25;;;26.00;38.90;;;;;;5042886;28;20441;-79
2021/06/16 09:54:16;;;;;;;3.58;2.30;;;26.20;40.20;;;;;;5042424;28;20124;-79
2021/06/16 09:56:52;;;;;;;2.80;2.30;;;26.30;41.50;;;;;;5041754;28;20697;-77
2021/06/16 10:00:02;;;;;;;2.80;2.30;;;26.40;41.80;;;;;;5046941;28;20365;-77
2021/06/16 10:02:30;;;;;;;2.65;2.45;;;26.40;38.40;;;;;;5015434;28;20584;-77
2021/06/16 10:07:24;;;;;;;4.00;2.40;;;26.60;37.20;;;;;;5052620;28;20028;-78
2021/06/16 10:10:07;;;;;;;4.60;2.53;;;26.50;38.60;;;;;;5051997;28;20030;-77
2021/06/16 10:12:41;;;;;;;4.18;2.40;;;26.60;41.70;;;;;;5045539;28;20074;-79
2021/06/16 10:15:15;;;;;;;4.10;2.72;;;26.50;40.90;;;;;;5042609;28;20392;-78
2021/06/16 10:17:42;;;;;;;4.05;2.80;;;26.50;39.50;;;;;;5041215;28;20109;-79
2021/06/16 10:20:10;;;;;;;2.83;2.63;;;26.60;43.60;;;;;;5048101;28;20021;-78
2021/06/16 10:22:37;;;;;;;2.85;2.50;;;26.60;43.50;;;;;;5053006;28;20075;-78
2021/06/16 10:25:04;;;;;;;3.58;2.60;;;26.70;40.70;;;;;;5043387;28;20094;-77
2021/06/16 10:27:53;;;;;;;3.50;2.60;;;26.80;39.50;;;;;;5045235;28;20029;-78
2021/06/16 10:30:22;;;;;;;3.22;2.50;;;26.80;37.00;;;;;;5040000;28;20039;-78
2021/06/16 10:32:50;;;;;;;3.60;2.38;;;26.90;39.30;;;;;;5024304;28;20031;-77
2021/06/16 10:35:21;;;;;;;;;;;26.90;37.50;;;;;;5024948;28;20033;-77
2021/06/16 10:37:47;;;;;;;4.68;2.72;;;26.80;38.40;;;;;;5032793;28;20283;-78
2021/06/16 10:40:13;;;;;;;4.13;2.42;;;26.80;39.10;;;;;;5031136;28;20041;-78
2021/06/16 10:43:04;;;;;;;3.42;2.83;;;26.90;38.50;;;;;;5030901;28;20373;-78
2021/06/16 10:45:39;;;;;;;3.35;2.80;;;26.70;37.40;;;;;;5028923;28;20036;-79
2021/06/16 10:48:07;;;;;;;3.33;2.63;;;26.60;40.00;;;;;;5021809;28;20040;-78
2021/06/16 10:50:45;;;;;;;2.60;2.40;;;26.70;41.20;;;;;;5024974;28;20033;-78
2021/06/16 10:53:21;;;;;;;3.70;2.50;;;26.80;37.70;;;;;;5028557;28;20495;-78
2021/06/16 10:55:56;;;;;;;5.90;2.22;;;26.90;38.90;;;;;;5031152;28;20100;-77
2021/06/16 10:58:25;;;;;;;3.20;2.90;;;27.00;38.90;;;;;;5029181;28;20108;-79
2021/06/16 11:01:11;;;;;;;2.72;2.33;;;27.10;35.90;;;;;;5031622;28;20037;-78
2021/06/16 11:03:52;;;;;;;2.65;2.42;;;27.10;37.90;;;;;;5037445;28;20024;-79
2021/06/16 11:06:33;;;;;;;8.40;2.40;;;27.10;35.70;;;;;;5021662;28;20714;-77
2021/06/16 11:09:10;;;;;;;2.55;2.33;;;27.30;36.90;;;;;;5025596;28;20095;-79
2021/06/16 11:11:52;;;;;;;2.13;1.95;;;27.30;34.80;;;;;;5022178;28;20057;-78
2021/06/16 11:14:33;;;;;;;2.22;1.92;;;27.40;34.00;;;;;;5035117;28;20025;-78
2021/06/16 11:17:03;;;;;;;2.70;1.80;;;27.40;35.50;;;;;;5027736;28;20036;-78
2021/06/16 11:19:35;;;;;;;4.57;2.10;;;27.50;35.90;;;;;;5025989;28;20088;-79
2021/06/16 11:22:11;;;;;;;6.07;2.10;;;27.70;35.10;;;;;;5029820;28;20032;-78
2021/06/16 11:25:05;;;;;;;3.88;2.13;;;27.70;36.20;;;;;;5029933;28;20098;-79
2021/06/16 11:27:49;;;;;;;12.02;3.10;;;27.70;35.80;;;;;;5025795;28;20108;-77
2021/06/16 11:30:46;;;;;;;2.40;2.17;;;27.70;36.40;;;;;;5020121;28;20040;-78
2021/06/16 11:33:12;;;;;;;;;;;27.50;36.50;;;;;;5024639;28;20047;-79
2021/06/16 11:35:39;;;;;;;4.25;2.53;;;27.30;39.00;;;;;;5033016;28;20303;-78
2021/06/16 11:38:05;;;;;;;2.42;2.13;;;27.20;40.90;;;;;;5023483;28;20036;-78
2021/06/16 11:40:31;;;;;;;3.97;2.65;;;27.20;39.60;;;;;;5023864;28;20021;-78
2021/06/16 11:42:58;;;;;;;5.45;2.30;;;27.00;41.20;;;;;;5024068;28;20406;-79
2021/06/16 11:45:32;;;;;;;2.85;2.08;;;27.00;40.30;;;;;;5023212;28;20038;-78
2021/06/16 11:47:59;;;;;;;3.00;2.10;;;27.00;37.10;;;;;;5025307;28;20033;-77
2021/06/16 11:50:34;;;;;;;3.67;1.92;;;27.00;38.40;;;;;;5025011;28;20244;-78
2021/06/16 11:53:05;;;;;;;2.70;1.92;;;27.10;35.00;;;;;;5026614;28;20030;-77
2021/06/16 11:55:45;;;;;;;2.70;2.40;;;27.10;39.80;;;;;;5022747;28;20025;-78
2021/06/16 11:58:19;;;;;;;4.20;2.40;;;27.10;39.20;;;;;;5022284;28;20028;-78
2021/06/16 12:00:45;;;;;;;2.92;2.22;;;27.10;38.40;;;;;;5023208;28;20037;-77
2021/06/16 12:03:15;;;;;;;6.00;2.40;;;27.10;37.10;;;;;;5020400;28;20030;-77
2021/06/16 12:05:41;;;;;;;2.63;1.70;;;27.10;36.50;;;;;;5019812;28;20858;-78
2021/06/16 12:08:07;;;;;;;5.85;2.17;;;27.10;37.60;;;;;;5024115;28;20484;-78
2021/06/16 12:10:32;;;;;;;2.88;2.03;;;27.20;35.90;;;;;;5018298;28;20028;-77
2021/06/16 12:13:01;;;;;;;3.00;2.30;;;27.30;35.10;;;;;;5022443;28;20068;-76
2021/06/16 12:15:37;;;;;;;2.92;2.40;;;27.40;36.40;;;;;;5017701;28;20527;-78
2021/06/16 12:18:10;;;;;;;2.15;1.70;;;27.50;35.60;;;;;;5014018;28;20318;-77
2021/06/16 12:20:37;;;;;;;2.05;1.95;;;27.50;34.50;;;;;;5014724;28;20030;-76
2021/06/16 12:23:21;;;;;;;3.83;1.97;;;27.40;33.90;;;;;;5017102;28;20041;-77
2021/06/16 12:25:46;;;;;;;2.22;2.03;;;27.40;38.30;;;;;;5019437;28;20518;-78
2021/06/16 12:28:14;;;;;;;2.15;1.83;;;27.30;38.90;;;;;;5019264;28;20022;-78
2021/06/16 12:30:40;;;;;;;5.75;2.28;;;27.30;38.70;;;;;;5026095;28;20041;-78
2021/06/16 12:33:40;;;;;;;2.78;2.13;;;27.30;34.10;;;;;;5022432;28;22267;-78
2021/06/16 12:36:19;;;;;;;4.13;2.13;;;27.30;35.80;;;;;;5012911;28;20132;-78
2021/06/16 12:38:47;;;;;;;2.72;2.22;;;27.30;33.70;;;;;;5011363;28;20030;-77
2021/06/16 12:41:53;;;;;;;2.53;1.98;;;27.30;34.70;;;;;;5023424;28;20033;-78
2021/06/16 12:44:27;;;;;;;2.55;2.35;;;27.30;35.90;;;;;;5004072;28;20041;-78
2021/06/16 12:47:25;;;;;;;13.70;3.85;;;27.30;38.00;;;;;;5017664;28;20408;-77
2021/06/16 12:49:53;;;;;;;3.65;2.30;;;27.30;37.50;;;;;;5013809;28;20033;-77
2021/06/16 12:52:33;;;;;;;3.08;2.17;;;27.20;35.90;;;;;;5033074;28;20427;-78
2021/06/16 12:55:13;;;;;;;2.45;2.20;;;27.20;37.10;;;;;;5024489;28;20034;-78
2021/06/16 12:57:44;;;;;;;2.10;1.90;;;27.20;36.60;;;;;;5026584;28;20104;-77